sensor_id;sensor_type;location;lat;lon;timestamp;P1;durP1;ratioP1;P2;durP2;ratioP2
69937;SDS011;57248;47.320;15.998;2022-08-07T00:01:05;3.80;;;2.20;;
69937;SDS011;57248;47.320;15.998;2022-08-07T00:03:31;3.33;;;2.00;;
69937;SDS011;57248;47.320;15.998;2022-08-07T00:05:56;4.32;;;2.20;;
69937;SDS011;57248;47.320;15.998;2022-08-07T00:08:22;3.60;;;2.10;;
69937;SDS011;57248;47.320;15.998;2022-08-07T00:10:48;3.72;;;2.15;;
69937;SDS011;57248;47.320;15.998;2022-08-07T00:13:14;3.80;;;2.20;;
69937;SDS011;57248;47.320;15.998;2022-08-07T00:15:40;4.30;;;2.00;;
69937;SDS011;57248;47.320;15.998;2022-08-07T00:18:06;5.53;;;2.07;;
69937;SDS011;57248;47.320;15.998;2022-08-07T00:20:34;3.47;;;2.10;;
69937;SDS011;57248;47.320;15.998;2022-08-07T00:23:00;4.35;;;2.10;;
69937;SDS011;57248;47.320;15.998;2022-08-07T00:25:26;3.67;;;2.10;;
69937;SDS011;57248;47.320;15.998;2022-08-07T00:27:51;3.70;;;2.27;;
69937;SDS011;57248;47.320;15.998;2022-08-07T00:30:17;3.63;;;2.30;;
69937;SDS011;57248;47.320;15.998;2022-08-07T00:32:47;6.07;;;1.90;;
69937;SDS011;57248;47.320;15.998;2022-08-07T00:35:14;6.10;;;2.22;;
69937;SDS011;57248;47.320;15.998;2022-08-07T00:37:39;4.50;;;2.13;;
69937;SDS011;57248;47.320;15.998;2022-08-07T00:40:05;3.43;;;1.90;;
69937;SDS011;57248;47.320;15.998;2022-08-07T00:42:31;3.63;;;2.10;;
69937;SDS011;57248;47.320;15.998;2022-08-07T00:44:58;4.40;;;2.20;;
69937;SDS011;57248;47.320;15.998;2022-08-07T00:47:23;4.13;;;2.20;;
69937;SDS011;57248;47.320;15.998;2022-08-07T00:49:49;3.95;;;2.10;;
69937;SDS011;57248;47.320;15.998;2022-08-07T00:52:14;4.10;;;2.10;;
69937;SDS011;57248;47.320;15.998;2022-08-07T00:54:40;4.35;;;2.25;;
69937;SDS011;57248;47.320;15.998;2022-08-07T00:57:05;4.00;;;2.10;;
69937;SDS011;57248;47.320;15.998;2022-08-07T00:59:31;5.22;;;2.42;;
69937;SDS011;57248;47.320;15.998;2022-08-07T01:01:58;3.97;;;1.90;;
69937;SDS011;57248;47.320;15.998;2022-08-07T01:04:26;4.35;;;2.28;;
69937;SDS011;57248;47.320;15.998;2022-08-07T01:06:52;3.70;;;2.13;;
69937;SDS011;57248;47.320;15.998;2022-08-07T01:09:20;4.35;;;2.10;;
69937;SDS011;57248;47.320;15.998;2022-08-07T01:11:45;4.30;;;2.30;;
69937;SDS011;57248;47.320;15.998;2022-08-07T01:14:11;4.67;;;2.57;;
69937;SDS011;57248;47.320;15.998;2022-08-07T01:16:37;5.00;;;2.30;;
69937;SDS011;57248;47.320;15.998;2022-08-07T01:19:05;4.57;;;2.50;;
69937;SDS011;57248;47.320;15.998;2022-08-07T01:21:32;4.47;;;2.40;;
69937;SDS011;57248;47.320;15.998;2022-08-07T01:23:58;4.53;;;2.63;;
69937;SDS011;57248;47.320;15.998;2022-08-07T01:26:26;3.80;;;2.38;;
69937;SDS011;57248;47.320;15.998;2022-08-07T01:28:53;4.75;;;2.42;;
69937;SDS011;57248;47.320;15.998;2022-08-07T01:31:22;4.87;;;2.60;;
69937;SDS011;57248;47.320;15.998;2022-08-07T01:33:55;4.00;;;2.47;;
69937;SDS011;57248;47.320;15.998;2022-08-07T01:36:22;4.22;;;2.35;;
69937;SDS011;57248;47.320;15.998;2022-08-07T01:38:49;4.40;;;2.28;;
69937;SDS011;57248;47.320;15.998;2022-08-07T01:41:20;5.65;;;2.72;;
69937;SDS011;57248;47.320;15.998;2022-08-07T01:43:47;4.27;;;2.33;;
69937;SDS011;57248;47.320;15.998;2022-08-07T01:46:14;5.95;;;2.38;;
69937;SDS011;57248;47.320;15.998;2022-08-07T01:48:44;4.40;;;2.63;;
69937;SDS011;57248;47.320;15.998;2022-08-07T01:51:16;5.28;;;3.00;;
69937;SDS011;57248;47.320;15.998;2022-08-07T01:53:43;4.78;;;2.47;;
69937;SDS011;57248;47.320;15.998;2022-08-07T01:56:13;5.00;;;2.60;;
69937;SDS011;57248;47.320;15.998;2022-08-07T01:58:43;4.78;;;2.58;;
69937;SDS011;57248;47.320;15.998;2022-08-07T02:01:18;4.53;;;2.60;;
69937;SDS011;57248;47.320;15.998;2022-08-07T02:03:50;5.28;;;2.67;;
69937;SDS011;57248;47.320;15.998;2022-08-07T02:06:20;4.47;;;2.55;;
69937;SDS011;57248;47.320;15.998;2022-08-07T02:08:49;4.87;;;2.60;;
69937;SDS011;57248;47.320;15.998;2022-08-07T02:11:16;4.50;;;2.40;;
69937;SDS011;57248;47.320;15.998;2022-08-07T02:13:42;4.70;;;2.50;;
69937;SDS011;57248;47.320;15.998;2022-08-07T02:16:09;6.45;;;2.58;;
69937;SDS011;57248;47.320;15.998;2022-08-07T02:18:36;4.97;;;2.67;;
69937;SDS011;57248;47.320;15.998;2022-08-07T02:21:04;5.38;;;2.50;;
69937;SDS011;57248;47.320;15.998;2022-08-07T02:23:34;4.75;;;2.03;;
69937;SDS011;57248;47.320;15.998;2022-08-07T02:26:03;5.05;;;2.30;;
69937;SDS011;57248;47.320;15.998;2022-08-07T02:28:30;3.97;;;2.45;;
69937;SDS011;57248;47.320;15.998;2022-08-07T02:31:01;4.07;;;2.63;;
69937;SDS011;57248;47.320;15.998;2022-08-07T02:33:30;3.75;;;2.10;;
69937;SDS011;57248;47.320;15.998;2022-08-07T02:35:57;4.75;;;2.20;;
69937;SDS011;57248;47.320;15.998;2022-08-07T02:38:30;10.60;;;2.55;;
69937;SDS011;57248;47.320;15.998;2022-08-07T02:41:02;4.78;;;2.33;;
69937;SDS011;57248;47.320;15.998;2022-08-07T02:43:29;4.00;;;2.27;;
69937;SDS011;57248;47.320;15.998;2022-08-07T02:45:57;3.88;;;2.25;;
69937;SDS011;57248;47.320;15.998;2022-08-07T02:48:24;4.25;;;2.50;;
69937;SDS011;57248;47.320;15.998;2022-08-07T02:50:51;5.28;;;2.35;;
69937;SDS011;57248;47.320;15.998;2022-08-07T02:53:20;4.65;;;2.28;;
69937;SDS011;57248;47.320;15.998;2022-08-07T02:55:50;4.53;;;2.30;;
69937;SDS011;57248;47.320;15.998;2022-08-07T02:58:18;4.80;;;2.70;;
69937;SDS011;57248;47.320;15.998;2022-08-07T03:00:46;4.57;;;2.45;;
69937;SDS011;57248;47.320;15.998;2022-08-07T03:03:16;6.63;;;2.53;;
69937;SDS011;57248;47.320;15.998;2022-08-07T03:05:45;5.63;;;2.60;;
69937;SDS011;57248;47.320;15.998;2022-08-07T03:08:13;5.20;;;2.47;;
69937;SDS011;57248;47.320;15.998;2022-08-07T03:10:44;4.03;;;2.55;;
69937;SDS011;57248;47.320;15.998;2022-08-07T03:13:13;5.13;;;2.75;;
69937;SDS011;57248;47.320;15.998;2022-08-07T03:15:40;6.07;;;2.92;;
69937;SDS011;57248;47.320;15.998;2022-08-07T03:18:07;4.63;;;2.88;;
69937;SDS011;57248;47.320;15.998;2022-08-07T03:20:33;5.03;;;2.53;;
69937;SDS011;57248;47.320;15.998;2022-08-07T03:23:00;5.50;;;2.58;;
69937;SDS011;57248;47.320;15.998;2022-08-07T03:25:27;6.30;;;2.67;;
69937;SDS011;57248;47.320;15.998;2022-08-07T03:27:55;4.97;;;2.88;;
69937;SDS011;57248;47.320;15.998;2022-08-07T03:30:23;5.68;;;2.83;;
69937;SDS011;57248;47.320;15.998;2022-08-07T03:32:52;5.03;;;2.70;;
69937;SDS011;57248;47.320;15.998;2022-08-07T03:35:23;4.32;;;2.40;;
69937;SDS011;57248;47.320;15.998;2022-08-07T03:37:57;5.65;;;2.45;;
69937;SDS011;57248;47.320;15.998;2022-08-07T03:40:28;5.88;;;2.50;;
69937;SDS011;57248;47.320;15.998;2022-08-07T03:42:55;4.15;;;2.30;;
69937;SDS011;57248;47.320;15.998;2022-08-07T03:45:22;4.03;;;2.40;;
69937;SDS011;57248;47.320;15.998;2022-08-07T03:47:50;4.60;;;2.20;;
69937;SDS011;57248;47.320;15.998;2022-08-07T03:50:19;4.00;;;2.30;;
69937;SDS011;57248;47.320;15.998;2022-08-07T03:52:46;4.47;;;2.45;;
69937;SDS011;57248;47.320;15.998;2022-08-07T03:55:13;4.03;;;2.17;;
69937;SDS011;57248;47.320;15.998;2022-08-07T03:57:42;5.00;;;2.35;;
69937;SDS011;57248;47.320;15.998;2022-08-07T04:00:11;4.38;;;2.60;;
69937;SDS011;57248;47.320;15.998;2022-08-07T04:02:41;7.05;;;2.60;;
69937;SDS011;57248;47.320;15.998;2022-08-07T04:05:13;4.07;;;2.42;;
69937;SDS011;57248;47.320;15.998;2022-08-07T04:07:43;4.30;;;2.40;;
69937;SDS011;57248;47.320;15.998;2022-08-07T04:10:11;4.50;;;2.50;;
69937;SDS011;57248;47.320;15.998;2022-08-07T04:12:37;4.75;;;2.40;;
69937;SDS011;57248;47.320;15.998;2022-08-07T04:15:03;4.72;;;2.60;;
69937;SDS011;57248;47.320;15.998;2022-08-07T04:17:32;4.68;;;2.50;;
69937;SDS011;57248;47.320;15.998;2022-08-07T04:19:58;3.97;;;2.37;;
69937;SDS011;57248;47.320;15.998;2022-08-07T04:22:25;4.97;;;2.50;;
69937;SDS011;57248;47.320;15.998;2022-08-07T04:24:53;4.53;;;2.35;;
69937;SDS011;57248;47.320;15.998;2022-08-07T04:27:19;4.13;;;2.40;;
69937;SDS011;57248;47.320;15.998;2022-08-07T04:29:45;5.33;;;2.53;;
69937;SDS011;57248;47.320;15.998;2022-08-07T04:32:11;4.78;;;2.45;;
69937;SDS011;57248;47.320;15.998;2022-08-07T04:34:37;3.92;;;2.45;;
69937;SDS011;57248;47.320;15.998;2022-08-07T04:37:03;4.37;;;2.30;;
69937;SDS011;57248;47.320;15.998;2022-08-07T04:39:29;4.20;;;2.40;;
69937;SDS011;57248;47.320;15.998;2022-08-07T04:41:56;5.07;;;2.45;;
69937;SDS011;57248;47.320;15.998;2022-08-07T04:44:22;5.38;;;2.72;;
69937;SDS011;57248;47.320;15.998;2022-08-07T04:47:08;4.30;;;2.47;;
69937;SDS011;57248;47.320;15.998;2022-08-07T04:49:52;4.60;;;2.77;;
69937;SDS011;57248;47.320;15.998;2022-08-07T04:56:02;4.85;;;2.58;;
69937;SDS011;57248;47.320;15.998;2022-08-07T04:58:45;4.43;;;2.63;;
69937;SDS011;57248;47.320;15.998;2022-08-07T05:01:18;4.80;;;2.50;;
69937;SDS011;57248;47.320;15.998;2022-08-07T05:03:50;4.83;;;2.53;;
69937;SDS011;57248;47.320;15.998;2022-08-07T05:06:24;5.65;;;2.63;;
69937;SDS011;57248;47.320;15.998;2022-08-07T05:09:18;4.72;;;2.38;;
69937;SDS011;57248;47.320;15.998;2022-08-07T05:11:49;3.97;;;2.40;;
69937;SDS011;57248;47.320;15.998;2022-08-07T05:14:18;4.35;;;2.30;;
69937;SDS011;57248;47.320;15.998;2022-08-07T05:16:49;4.03;;;2.57;;
69937;SDS011;57248;47.320;15.998;2022-08-07T05:19:18;4.38;;;2.63;;
69937;SDS011;57248;47.320;15.998;2022-08-07T05:21:49;4.25;;;2.63;;
69937;SDS011;57248;47.320;15.998;2022-08-07T05:24:19;3.55;;;2.10;;
69937;SDS011;57248;47.320;15.998;2022-08-07T05:26:49;3.67;;;2.38;;
69937;SDS011;57248;47.320;15.998;2022-08-07T05:29:19;5.23;;;2.50;;
69937;SDS011;57248;47.320;15.998;2022-08-07T05:31:46;5.25;;;2.97;;
69937;SDS011;57248;47.320;15.998;2022-08-07T05:34:16;4.13;;;2.40;;
69937;SDS011;57248;47.320;15.998;2022-08-07T05:36:45;4.10;;;2.70;;
69937;SDS011;57248;47.320;15.998;2022-08-07T05:39:20;4.97;;;2.42;;
69937;SDS011;57248;47.320;15.998;2022-08-07T05:41:49;6.20;;;2.70;;
69937;SDS011;57248;47.320;15.998;2022-08-07T05:44:16;4.53;;;2.80;;
69937;SDS011;57248;47.320;15.998;2022-08-07T05:46:46;5.15;;;2.50;;
69937;SDS011;57248;47.320;15.998;2022-08-07T05:49:13;3.83;;;2.50;;
69937;SDS011;57248;47.320;15.998;2022-08-07T05:51:43;3.97;;;2.55;;
69937;SDS011;57248;47.320;15.998;2022-08-07T05:54:10;4.33;;;2.60;;
69937;SDS011;57248;47.320;15.998;2022-08-07T05:56:37;4.15;;;2.80;;
69937;SDS011;57248;47.320;15.998;2022-08-07T05:59:05;3.80;;;2.45;;
69937;SDS011;57248;47.320;15.998;2022-08-07T06:01:38;4.30;;;2.88;;
69937;SDS011;57248;47.320;15.998;2022-08-07T06:04:06;61.25;;;22.70;;
69937;SDS011;57248;47.320;15.998;2022-08-07T06:06:37;5.13;;;3.23;;
69937;SDS011;57248;47.320;15.998;2022-08-07T06:09:04;4.28;;;2.90;;
69937;SDS011;57248;47.320;15.998;2022-08-07T06:11:35;4.38;;;2.97;;
69937;SDS011;57248;47.320;15.998;2022-08-07T06:14:03;15.38;;;7.68;;
69937;SDS011;57248;47.320;15.998;2022-08-07T06:16:31;8.32;;;4.05;;
69937;SDS011;57248;47.320;15.998;2022-08-07T06:19:02;3.90;;;2.90;;
69937;SDS011;57248;47.320;15.998;2022-08-07T06:21:29;5.53;;;3.00;;
69937;SDS011;57248;47.320;15.998;2022-08-07T06:23:55;4.65;;;2.90;;
69937;SDS011;57248;47.320;15.998;2022-08-07T06:26:23;4.78;;;2.80;;
69937;SDS011;57248;47.320;15.998;2022-08-07T06:28:59;4.25;;;2.80;;
69937;SDS011;57248;47.320;15.998;2022-08-07T06:31:28;4.70;;;2.90;;
69937;SDS011;57248;47.320;15.998;2022-08-07T06:33:55;3.80;;;2.47;;
69937;SDS011;57248;47.320;15.998;2022-08-07T06:36:20;3.92;;;3.03;;
69937;SDS011;57248;47.320;15.998;2022-08-07T06:38:53;3.97;;;2.78;;
69937;SDS011;57248;47.320;15.998;2022-08-07T06:41:27;3.53;;;2.40;;
69937;SDS011;57248;47.320;15.998;2022-08-07T06:43:57;4.15;;;2.67;;
69937;SDS011;57248;47.320;15.998;2022-08-07T06:46:24;4.70;;;2.40;;
69937;SDS011;57248;47.320;15.998;2022-08-07T06:48:52;3.95;;;2.65;;
69937;SDS011;57248;47.320;15.998;2022-08-07T06:51:20;4.25;;;2.45;;
69937;SDS011;57248;47.320;15.998;2022-08-07T06:53:51;3.70;;;2.50;;
69937;SDS011;57248;47.320;15.998;2022-08-07T06:56:19;3.95;;;2.58;;
69937;SDS011;57248;47.320;15.998;2022-08-07T06:59:08;4.75;;;2.88;;
69937;SDS011;57248;47.320;15.998;2022-08-07T07:01:40;3.65;;;2.50;;
69937;SDS011;57248;47.320;15.998;2022-08-07T07:04:07;3.72;;;2.70;;
69937;SDS011;57248;47.320;15.998;2022-08-07T07:06:33;3.27;;;2.40;;
69937;SDS011;57248;47.320;15.998;2022-08-07T07:11:53;3.72;;;2.65;;
69937;SDS011;57248;47.320;15.998;2022-08-07T07:14:28;3.17;;;2.40;;
69937;SDS011;57248;47.320;15.998;2022-08-07T07:17:16;3.53;;;2.55;;
69937;SDS011;57248;47.320;15.998;2022-08-07T07:19:49;3.60;;;2.20;;
69937;SDS011;57248;47.320;15.998;2022-08-07T07:22:18;3.45;;;2.30;;
69937;SDS011;57248;47.320;15.998;2022-08-07T07:24:44;4.47;;;2.80;;
69937;SDS011;57248;47.320;15.998;2022-08-07T07:27:11;4.15;;;2.72;;
69937;SDS011;57248;47.320;15.998;2022-08-07T07:29:40;3.28;;;2.60;;
69937;SDS011;57248;47.320;15.998;2022-08-07T07:32:12;3.70;;;2.63;;
69937;SDS011;57248;47.320;15.998;2022-08-07T07:34:40;3.00;;;2.50;;
69937;SDS011;57248;47.320;15.998;2022-08-07T07:37:09;4.07;;;2.65;;
69937;SDS011;57248;47.320;15.998;2022-08-07T07:39:37;3.65;;;2.42;;
69937;SDS011;57248;47.320;15.998;2022-08-07T07:42:04;3.60;;;2.60;;
69937;SDS011;57248;47.320;15.998;2022-08-07T07:44:32;3.50;;;3.03;;
69937;SDS011;57248;47.320;15.998;2022-08-07T07:47:00;3.70;;;2.72;;
69937;SDS011;57248;47.320;15.998;2022-08-07T07:49:27;4.68;;;2.97;;
69937;SDS011;57248;47.320;15.998;2022-08-07T07:51:56;3.78;;;3.25;;
69937;SDS011;57248;47.320;15.998;2022-08-07T07:54:22;4.00;;;3.53;;
69937;SDS011;57248;47.320;15.998;2022-08-07T07:56:50;3.63;;;3.33;;
69937;SDS011;57248;47.320;15.998;2022-08-07T07:59:17;4.28;;;3.70;;
69937;SDS011;57248;47.320;15.998;2022-08-07T08:01:44;4.13;;;3.72;;
69937;SDS011;57248;47.320;15.998;2022-08-07T08:04:12;4.13;;;3.72;;
69937;SDS011;57248;47.320;15.998;2022-08-07T08:06:40;4.40;;;3.58;;
69937;SDS011;57248;47.320;15.998;2022-08-07T08:09:07;4.23;;;3.83;;
69937;SDS011;57248;47.320;15.998;2022-08-07T08:11:33;5.03;;;4.60;;
69937;SDS011;57248;47.320;15.998;2022-08-07T08:14:01;6.32;;;5.80;;
69937;SDS011;57248;47.320;15.998;2022-08-07T08:16:35;7.35;;;6.75;;
69937;SDS011;57248;47.320;15.998;2022-08-07T08:19:04;6.72;;;6.13;;
69937;SDS011;57248;47.320;15.998;2022-08-07T08:21:33;6.83;;;6.33;;
69937;SDS011;57248;47.320;15.998;2022-08-07T08:24:22;8.23;;;7.60;;
69937;SDS011;57248;47.320;15.998;2022-08-07T08:27:08;7.03;;;6.43;;
69937;SDS011;57248;47.320;15.998;2022-08-07T08:29:42;6.65;;;6.15;;
69937;SDS011;57248;47.320;15.998;2022-08-07T08:32:17;6.38;;;5.78;;
69937;SDS011;57248;47.320;15.998;2022-08-07T08:34:44;7.17;;;6.47;;
69937;SDS011;57248;47.320;15.998;2022-08-07T08:37:12;8.90;;;8.30;;
69937;SDS011;57248;47.320;15.998;2022-08-07T08:39:41;8.30;;;7.70;;
69937;SDS011;57248;47.320;15.998;2022-08-07T08:45:11;9.10;;;8.43;;
69937;SDS011;57248;47.320;15.998;2022-08-07T08:50:36;10.27;;;9.57;;
69937;SDS011;57248;47.320;15.998;2022-08-07T08:55:39;10.10;;;9.50;;
69937;SDS011;57248;47.320;15.998;2022-08-07T09:00:55;9.60;;;8.90;;
69937;SDS011;57248;47.320;15.998;2022-08-07T09:08:36;16.98;;;14.63;;
69937;SDS011;57248;47.320;15.998;2022-08-07T09:16:26;14.25;;;13.38;;
69937;SDS011;57248;47.320;15.998;2022-08-07T09:19:01;14.93;;;14.02;;
69937;SDS011;57248;47.320;15.998;2022-08-07T09:30:21;15.05;;;14.15;;
69937;SDS011;57248;47.320;15.998;2022-08-07T09:35:38;16.87;;;15.90;;
69937;SDS011;57248;47.320;15.998;2022-08-07T09:43:39;13.05;;;11.88;;
69937;SDS011;57248;47.320;15.998;2022-08-07T09:46:25;15.83;;;14.93;;
69937;SDS011;57248;47.320;15.998;2022-08-07T09:54:37;11.40;;;10.50;;
69937;SDS011;57248;47.320;15.998;2022-08-07T10:00:11;15.63;;;14.73;;
69937;SDS011;57248;47.320;15.998;2022-08-07T10:03:02;16.75;;;15.75;;
69937;SDS011;57248;47.320;15.998;2022-08-07T10:11:13;13.65;;;12.75;;
69937;SDS011;57248;47.320;15.998;2022-08-07T10:14:11;12.43;;;11.57;;
69937;SDS011;57248;47.320;15.998;2022-08-07T10:17:05;12.77;;;11.98;;
69937;SDS011;57248;47.320;15.998;2022-08-07T10:20:07;12.40;;;11.60;;
69937;SDS011;57248;47.320;15.998;2022-08-07T10:27:55;12.07;;;11.37;;
69937;SDS011;57248;47.320;15.998;2022-08-07T10:30:49;11.00;;;10.30;;
69937;SDS011;57248;47.320;15.998;2022-08-07T10:41:30;14.57;;;13.68;;
69937;SDS011;57248;47.320;15.998;2022-08-07T10:44:05;15.13;;;14.18;;
69937;SDS011;57248;47.320;15.998;2022-08-07T10:46:50;16.75;;;15.75;;
69937;SDS011;57248;47.320;15.998;2022-08-07T10:49:31;17.65;;;16.65;;
69937;SDS011;57248;47.320;15.998;2022-08-07T10:52:05;15.40;;;14.50;;
69937;SDS011;57248;47.320;15.998;2022-08-07T10:57:10;15.70;;;14.70;;
69937;SDS011;57248;47.320;15.998;2022-08-07T11:02:29;17.23;;;16.23;;
69937;SDS011;57248;47.320;15.998;2022-08-07T11:21:37;16.95;;;15.95;;
69937;SDS011;57248;47.320;15.998;2022-08-07T11:24:11;14.85;;;13.95;;
69937;SDS011;57248;47.320;15.998;2022-08-07T11:26:46;14.82;;;13.93;;
69937;SDS011;57248;47.320;15.998;2022-08-07T11:29:16;14.10;;;13.13;;
69937;SDS011;57248;47.320;15.998;2022-08-07T11:31:53;15.20;;;14.30;;
69937;SDS011;57248;47.320;15.998;2022-08-07T11:37:46;15.82;;;14.85;;
69937;SDS011;57248;47.320;15.998;2022-08-07T11:43:27;14.98;;;13.98;;
69937;SDS011;57248;47.320;15.998;2022-08-07T11:57:02;18.95;;;17.85;;
69937;SDS011;57248;47.320;15.998;2022-08-07T11:59:47;16.90;;;15.87;;
69937;SDS011;57248;47.320;15.998;2022-08-07T12:08:21;15.07;;;14.18;;
69937;SDS011;57248;47.320;15.998;2022-08-07T12:13:21;15.10;;;14.20;;
69937;SDS011;57248;47.320;15.998;2022-08-07T12:16:12;13.27;;;12.38;;
69937;SDS011;57248;47.320;15.998;2022-08-07T12:21:27;15.48;;;14.57;;
69937;SDS011;57248;47.320;15.998;2022-08-07T12:30:02;13.30;;;12.48;;
69937;SDS011;57248;47.320;15.998;2022-08-07T12:32:35;14.35;;;13.35;;
69937;SDS011;57248;47.320;15.998;2022-08-07T12:35:07;9.18;;;8.48;;
69937;SDS011;57248;47.320;15.998;2022-08-07T12:37:36;6.93;;;5.78;;
69937;SDS011;57248;47.320;15.998;2022-08-07T12:40:04;7.10;;;6.60;;
69937;SDS011;57248;47.320;15.998;2022-08-07T12:42:32;7.47;;;6.88;;
69937;SDS011;57248;47.320;15.998;2022-08-07T12:45:06;11.45;;;10.70;;
69937;SDS011;57248;47.320;15.998;2022-08-07T12:47:47;12.57;;;11.77;;
69937;SDS011;57248;47.320;15.998;2022-08-07T12:53:19;11.77;;;11.07;;
69937;SDS011;57248;47.320;15.998;2022-08-07T12:58:27;6.60;;;6.10;;
69937;SDS011;57248;47.320;15.998;2022-08-07T13:07:06;4.67;;;4.27;;
69937;SDS011;57248;47.320;15.998;2022-08-07T13:09:30;6.28;;;5.78;;
69937;SDS011;57248;47.320;15.998;2022-08-07T13:12:10;5.88;;;5.38;;
69937;SDS011;57248;47.320;15.998;2022-08-07T13:17:57;8.65;;;8.02;;
69937;SDS011;57248;47.320;15.998;2022-08-07T13:20:30;10.43;;;9.73;;
69937;SDS011;57248;47.320;15.998;2022-08-07T13:23:13;12.73;;;11.93;;
69937;SDS011;57248;47.320;15.998;2022-08-07T13:25:49;9.50;;;8.77;;
69937;SDS011;57248;47.320;15.998;2022-08-07T13:28:40;9.65;;;9.05;;
69937;SDS011;57248;47.320;15.998;2022-08-07T13:31:12;11.65;;;10.90;;
69937;SDS011;57248;47.320;15.998;2022-08-07T13:33:54;7.73;;;7.20;;
69937;SDS011;57248;47.320;15.998;2022-08-07T13:36:27;5.15;;;4.75;;
69937;SDS011;57248;47.320;15.998;2022-08-07T13:39:06;3.95;;;3.55;;
69937;SDS011;57248;47.320;15.998;2022-08-07T13:41:43;3.75;;;3.20;;
69937;SDS011;57248;47.320;15.998;2022-08-07T13:44:16;3.72;;;2.70;;
69937;SDS011;57248;47.320;15.998;2022-08-07T13:46:45;6.70;;;4.10;;
69937;SDS011;57248;47.320;15.998;2022-08-07T13:49:12;3.47;;;2.55;;
69937;SDS011;57248;47.320;15.998;2022-08-07T13:51:41;3.50;;;2.50;;
69937;SDS011;57248;47.320;15.998;2022-08-07T13:54:11;3.38;;;2.50;;
69937;SDS011;57248;47.320;15.998;2022-08-07T13:56:38;3.35;;;2.45;;
69937;SDS011;57248;47.320;15.998;2022-08-07T13:59:06;3.40;;;2.63;;
69937;SDS011;57248;47.320;15.998;2022-08-07T14:01:37;3.58;;;2.60;;
69937;SDS011;57248;47.320;15.998;2022-08-07T14:04:14;4.57;;;2.92;;
69937;SDS011;57248;47.320;15.998;2022-08-07T14:06:41;4.05;;;2.45;;
69937;SDS011;57248;47.320;15.998;2022-08-07T14:09:14;3.22;;;2.33;;
69937;SDS011;57248;47.320;15.998;2022-08-07T14:11:46;3.53;;;2.40;;
69937;SDS011;57248;47.320;15.998;2022-08-07T14:14:16;3.67;;;2.20;;
69937;SDS011;57248;47.320;15.998;2022-08-07T14:16:44;3.90;;;2.28;;
69937;SDS011;57248;47.320;15.998;2022-08-07T14:19:16;4.30;;;2.30;;
69937;SDS011;57248;47.320;15.998;2022-08-07T14:21:47;3.47;;;2.20;;
69937;SDS011;57248;47.320;15.998;2022-08-07T14:27:01;3.20;;;2.30;;
69937;SDS011;57248;47.320;15.998;2022-08-07T14:29:39;5.20;;;2.40;;
69937;SDS011;57248;47.320;15.998;2022-08-07T14:32:12;3.65;;;2.10;;
69937;SDS011;57248;47.320;15.998;2022-08-07T14:34:41;4.28;;;2.10;;
69937;SDS011;57248;47.320;15.998;2022-08-07T14:37:09;3.90;;;2.27;;
69937;SDS011;57248;47.320;15.998;2022-08-07T14:39:37;5.22;;;2.35;;
69937;SDS011;57248;47.320;15.998;2022-08-07T14:42:09;4.25;;;2.20;;
69937;SDS011;57248;47.320;15.998;2022-08-07T14:44:43;3.40;;;2.25;;
69937;SDS011;57248;47.320;15.998;2022-08-07T14:47:12;3.80;;;2.30;;
69937;SDS011;57248;47.320;15.998;2022-08-07T14:49:41;3.77;;;2.60;;
69937;SDS011;57248;47.320;15.998;2022-08-07T14:52:07;3.35;;;2.47;;
69937;SDS011;57248;47.320;15.998;2022-08-07T14:54:33;4.43;;;2.63;;
69937;SDS011;57248;47.320;15.998;2022-08-07T14:57:02;4.03;;;2.55;;
69937;SDS011;57248;47.320;15.998;2022-08-07T14:59:35;3.28;;;2.38;;
69937;SDS011;57248;47.320;15.998;2022-08-07T15:02:11;3.53;;;2.50;;
69937;SDS011;57248;47.320;15.998;2022-08-07T15:04:43;4.55;;;3.30;;
69937;SDS011;57248;47.320;15.998;2022-08-07T15:07:10;3.40;;;2.60;;
69937;SDS011;57248;47.320;15.998;2022-08-07T15:09:41;3.42;;;2.40;;
69937;SDS011;57248;47.320;15.998;2022-08-07T15:12:09;3.45;;;2.35;;
69937;SDS011;57248;47.320;15.998;2022-08-07T15:14:37;2.77;;;1.93;;
69937;SDS011;57248;47.320;15.998;2022-08-07T15:17:14;3.47;;;2.25;;
69937;SDS011;57248;47.320;15.998;2022-08-07T15:19:50;4.13;;;2.88;;
69937;SDS011;57248;47.320;15.998;2022-08-07T15:22:23;4.30;;;2.75;;
69937;SDS011;57248;47.320;15.998;2022-08-07T15:24:51;4.78;;;3.25;;
69937;SDS011;57248;47.320;15.998;2022-08-07T15:27:22;3.37;;;2.80;;
69937;SDS011;57248;47.320;15.998;2022-08-07T15:29:50;4.53;;;2.90;;
69937;SDS011;57248;47.320;15.998;2022-08-07T15:32:18;5.47;;;2.63;;
69937;SDS011;57248;47.320;15.998;2022-08-07T15:34:46;3.17;;;2.42;;
69937;SDS011;57248;47.320;15.998;2022-08-07T15:37:21;4.03;;;2.70;;
69937;SDS011;57248;47.320;15.998;2022-08-07T15:39:54;5.13;;;3.40;;
69937;SDS011;57248;47.320;15.998;2022-08-07T15:43:11;3.63;;;3.08;;
69937;SDS011;57248;47.320;15.998;2022-08-07T15:48:48;3.50;;;2.90;;
69937;SDS011;57248;47.320;15.998;2022-08-07T15:50:46;4.25;;;2.30;;
69937;SDS011;57248;47.320;15.998;2022-08-07T15:53:16;4.27;;;2.13;;
69937;SDS011;57248;47.320;15.998;2022-08-07T15:55:55;2.97;;;2.05;;
69937;SDS011;57248;47.320;15.998;2022-08-07T15:58:28;3.50;;;1.92;;
69937;SDS011;57248;47.320;15.998;2022-08-07T16:01:39;4.05;;;2.15;;
69937;SDS011;57248;47.320;15.998;2022-08-07T16:04:08;4.28;;;2.10;;
69937;SDS011;57248;47.320;15.998;2022-08-07T16:06:37;3.33;;;2.23;;
69937;SDS011;57248;47.320;15.998;2022-08-07T16:09:10;3.20;;;2.00;;
69937;SDS011;57248;47.320;15.998;2022-08-07T16:14:55;6.32;;;2.33;;
69937;SDS011;57248;47.320;15.998;2022-08-07T16:17:48;5.32;;;1.90;;
69937;SDS011;57248;47.320;15.998;2022-08-07T16:20:30;4.30;;;1.83;;
69937;SDS011;57248;47.320;15.998;2022-08-07T16:23:16;3.15;;;1.70;;
69937;SDS011;57248;47.320;15.998;2022-08-07T16:26:06;4.05;;;2.03;;
69937;SDS011;57248;47.320;15.998;2022-08-07T16:33:39;3.42;;;1.80;;
69937;SDS011;57248;47.320;15.998;2022-08-07T16:46:53;3.55;;;1.90;;
69937;SDS011;57248;47.320;15.998;2022-08-07T17:00:38;4.50;;;2.00;;
69937;SDS011;57248;47.320;15.998;2022-08-07T17:03:15;3.20;;;1.80;;
69937;SDS011;57248;47.320;15.998;2022-08-07T17:08:34;4.00;;;1.83;;
69937;SDS011;57248;47.320;15.998;2022-08-07T17:11:12;3.83;;;1.90;;
69937;SDS011;57248;47.320;15.998;2022-08-07T17:13:59;3.25;;;1.60;;
69937;SDS011;57248;47.320;15.998;2022-08-07T17:16:43;4.35;;;2.00;;
69937;SDS011;57248;47.320;15.998;2022-08-07T17:21:51;3.57;;;1.60;;
69937;SDS011;57248;47.320;15.998;2022-08-07T17:27:15;4.28;;;1.50;;
69937;SDS011;57248;47.320;15.998;2022-08-07T17:35:19;2.83;;;1.50;;
69937;SDS011;57248;47.320;15.998;2022-08-07T17:37:58;3.58;;;1.67;;
69937;SDS011;57248;47.320;15.998;2022-08-07T17:40:37;3.30;;;1.48;;
69937;SDS011;57248;47.320;15.998;2022-08-07T17:43:35;4.30;;;1.60;;
69937;SDS011;57248;47.320;15.998;2022-08-07T17:51:21;3.33;;;1.60;;
69937;SDS011;57248;47.320;15.998;2022-08-07T17:54:12;3.83;;;1.53;;
69937;SDS011;57248;47.320;15.998;2022-08-07T17:56:58;3.60;;;1.70;;
69937;SDS011;57248;47.320;15.998;2022-08-07T17:59:51;2.63;;;1.42;;
69937;SDS011;57248;47.320;15.998;2022-08-07T18:02:28;3.75;;;1.73;;
69937;SDS011;57248;47.320;15.998;2022-08-07T18:05:04;3.42;;;1.80;;
69937;SDS011;57248;47.320;15.998;2022-08-07T18:07:43;3.07;;;1.70;;
69937;SDS011;57248;47.320;15.998;2022-08-07T18:10:24;3.88;;;1.48;;
69937;SDS011;57248;47.320;15.998;2022-08-07T18:13:25;3.05;;;1.80;;
69937;SDS011;57248;47.320;15.998;2022-08-07T18:19:14;4.18;;;1.73;;